Time;durP1;ratioP1;P1;durP2;ratioP2;P2;SDS_P1;SDS_P2;PMS_P1;PMS_P2;Temp;Humidity;BMP_temperature;BMP_pressure;BME280_temperature;BME280_humidity;BME280_pressure;Samples;Min_cycle;Max_cycle;Signal;HPM_P1;HPM_P2
2022/12/25 16:34:25;;;;;;;148.25;51.30;;;;;;;;;;6274073;27;20414;-67
2022/12/25 16:37:28;;;;;;;182.77;58.67;;;;;;;;;;6243789;28;20053;-68
2022/12/25 16:40:28;;;;;;;;;;;;;;;;;;6244855;28;20041;-65
2022/12/25 16:43:31;;;;;;;148.75;52.67;;;;;;;;;;6243556;28;19928;-68
2022/12/25 16:46:32;;;;;;;135.88;52.25;;;;;;;;;;6233263;28;20132;-65
2022/12/25 16:49:33;;;;;;;161.63;64.35;;;;;;;;;;6251835;28;20076;-63
2022/12/25 16:52:35;;;;;;;158.87;60.17;;;;;;;;;;6249813;28;20049;-65
2022/12/25 16:55:38;;;;;;;159.90;61.23;;;;;;;;;;6254654;28;20045;-64
2022/12/25 16:58:40;;;;;;;172.02;63.53;;;;;;;;;;6252891;28;20488;-62
2022/12/25 17:01:42;;;;;;;147.65;57.47;;;;;;;;;;6248115;28;20080;-63
2022/12/25 17:04:44;;;;;;;151.60;57.47;;;;;;;;;;6251709;28;20045;-65
2022/12/25 17:07:45;;;;;;;201.40;74.15;;;;;;;;;;6251415;28;20049;-61
2022/12/25 17:10:46;;;;;;;184.35;65.05;;;;;;;;;;6249411;28;20525;-63
2022/12/25 17:13:47;;;;;;;175.93;66.95;;;;;;;;;;6249978;28;20052;-67
2022/12/25 17:16:48;;;;;;;144.93;58.28;;;;;;;;;;6253144;28;20132;-62
2022/12/25 17:19:49;;;;;;;156.98;57.78;;;;;;;;;;6251627;28;20119;-62
2022/12/25 17:22:49;;;;;;;149.73;55.35;;;;;;;;;;6249182;28;20121;-62
2022/12/25 17:25:50;;;;;;;136.80;53.75;;;;;;;;;;6252370;28;20801;-61
2022/12/25 17:28:50;;;;;;;142.95;55.42;;;;;;;;;;6252776;28;20419;-64
2022/12/25 17:31:51;;;;;;;144.02;59.88;;;;;;;;;;6249014;28;20069;-62
2022/12/25 17:34:52;;;;;;;128.05;53.45;;;;;;;;;;6252490;28;20061;-62
2022/12/25 17:37:53;;;;;;;134.98;55.75;;;;;;;;;;6252339;28;20057;-62
2022/12/25 17:40:55;;;;;;;123.50;51.20;;;;;;;;;;6249448;28;20570;-62
2022/12/25 17:43:56;;;;;;;109.15;46.80;;;;;;;;;;6241378;28;20735;-63
2022/12/25 17:46:57;;;;;;;113.18;46.90;;;;;;;;;;6235658;28;20088;-63
2022/12/25 17:49:58;;;;;;;206.10;98.88;;;;;;;;;;6235512;28;20050;-63
2022/12/25 17:53:01;;;;;;;195.20;94.25;;;;;;;;;;6233113;28;20377;-63
2022/12/25 17:56:03;;;;;;;161.98;75.63;;;;;;;;;;6235926;28;20781;-63
2022/12/25 17:59:07;;;;;;;156.93;71.45;;;;;;;;;;6233425;28;20057;-62
2022/12/25 18:02:09;;;;;;;134.13;59.13;;;;;;;;;;6231925;28;20056;-62
2022/12/25 18:05:10;;;;;;;132.60;55.63;;;;;;;;;;6235574;28;20061;-63
2022/12/25 18:08:10;;;;;;;122.65;55.15;;;;;;;;;;6234252;28;20422;-62
2022/12/25 18:11:14;;;;;;;131.95;57.10;;;;;;;;;;6231093;28;20053;-62
2022/12/25 18:14:16;;;;;;;130.75;57.75;;;;;;;;;;6234555;28;20060;-64
2022/12/25 18:17:16;;;;;;;140.48;61.33;;;;;;;;;;6235189;28;20488;-69
2022/12/25 18:20:17;;;;;;;142.20;59.28;;;;;;;;;;6234060;28;20084;-64
2022/12/25 18:23:17;;;;;;;141.65;58.85;;;;;;;;;;6229254;28;20049;-62
2022/12/25 18:26:19;;;;;;;138.52;60.20;;;;;;;;;;6233990;28;20076;-63
2022/12/25 18:29:19;;;;;;;159.38;71.40;;;;;;;;;;6233910;28;20053;-64
2022/12/25 18:32:21;;;;;;;149.88;68.35;;;;;;;;;;6230865;28;21357;-67
2022/12/25 18:35:27;;;;;;;125.87;56.27;;;;;;;;;;6233284;28;20046;-63
2022/12/25 18:38:28;;;;;;;124.90;55.38;;;;;;;;;;6233030;28;20047;-68
2022/12/25 18:41:29;;;;;;;115.57;50.78;;;;;;;;;;6231053;28;20737;-67
2022/12/25 18:44:30;;;;;;;120.97;52.85;;;;;;;;;;6229704;28;20087;-63
2022/12/25 18:47:31;;;;;;;117.43;48.67;;;;;;;;;;6231821;28;20450;-68
2022/12/25 18:50:33;;;;;;;124.83;47.63;;;;;;;;;;6227225;28;20937;-65
2022/12/25 18:53:34;;;;;;;111.15;51.78;;;;;;;;;;6228573;28;20056;-61
2022/12/25 18:56:35;;;;;;;127.60;52.03;;;;;;;;;;6228595;28;20052;-61
2022/12/25 18:59:35;;;;;;;104.30;46.83;;;;;;;;;;6231692;28;20050;-62
2022/12/25 19:02:36;;;;;;;106.43;47.28;;;;;;;;;;6222699;28;20045;-62
2022/12/25 19:05:39;;;;;;;105.78;45.33;;;;;;;;;;6221915;28;20055;-62
2022/12/25 19:08:39;;;;;;;106.30;46.97;;;;;;;;;;6221375;28;20052;-61
2022/12/25 19:11:41;;;;;;;102.88;43.50;;;;;;;;;;6218490;28;20061;-61
2022/12/25 19:14:43;;;;;;;97.95;44.83;;;;;;;;;;6218705;28;20053;-62
2022/12/25 19:17:44;;;;;;;102.72;44.72;;;;;;;;;;6221214;28;20535;-64
2022/12/25 19:20:45;;;;;;;99.05;42.45;;;;;;;;;;6219395;28;20049;-61
2022/12/25 19:23:48;;;;;;;99.80;46.50;;;;;;;;;;6233826;28;20056;-62
2022/12/25 19:26:50;;;;;;;108.13;44.47;;;;;;;;;;6222150;28;20081;-62
2022/12/25 19:29:52;;;;;;;108.93;46.17;;;;;;;;;;6222494;28;21212;-65
2022/12/25 19:32:53;;;;;;;102.30;45.53;;;;;;;;;;6218492;28;20061;-62
2022/12/25 19:35:59;;;;;;;94.45;43.55;;;;;;;;;;6218668;28;20161;-65
2022/12/25 19:39:00;;;;;;;95.40;43.67;;;;;;;;;;6220694;28;20388;-62
2022/12/25 19:42:00;;;;;;;95.20;41.28;;;;;;;;;;6220017;28;20049;-62
2022/12/25 19:45:02;;;;;;;95.93;46.13;;;;;;;;;;6223058;28;21451;-65
2022/12/25 19:48:02;;;;;;;95.95;40.42;;;;;;;;;;6226828;28;20141;-62
2022/12/25 19:51:20;;;;;;;84.82;39.13;;;;;;;;;;6225665;28;20056;-64
2022/12/25 19:54:22;;;;;;;89.22;39.50;;;;;;;;;;6224699;28;20053;-61
2022/12/25 19:57:25;;;;;;;92.97;41.20;;;;;;;;;;6221716;28;20115;-62
2022/12/25 20:00:26;;;;;;;98.38;41.92;;;;;;;;;;6221901;28;20519;-62
2022/12/25 20:03:27;;;;;;;103.88;44.20;;;;;;;;;;6219882;28;20117;-64
2022/12/25 20:06:33;;;;;;;101.57;43.97;;;;;;;;;;6220745;28;20053;-61
2022/12/25 20:09:34;;;;;;;100.65;40.47;;;;;;;;;;6219635;28;21225;-62
2022/12/25 20:12:34;;;;;;;97.68;42.33;;;;;;;;;;6217029;28;20049;-61
2022/12/25 20:15:36;;;;;;;101.93;38.67;;;;;;;;;;6227389;28;20067;-62
2022/12/25 20:18:38;;;;;;;99.95;39.97;;;;;;;;;;6224905;28;20411;-64
2022/12/25 20:21:40;;;;;;;116.80;44.13;;;;;;;;;;6218304;28;20131;-62
2022/12/25 20:24:41;;;;;;;115.28;47.90;;;;;;;;;;6235417;28;20657;-62
2022/12/25 20:27:49;;;;;;;114.13;47.30;;;;;;;;;;6221683;28;20152;-63
2022/12/25 20:30:49;;;;;;;123.85;49.92;;;;;;;;;;6220737;28;20444;-62
2022/12/25 20:33:53;;;;;;;122.97;49.30;;;;;;;;;;6221499;28;20065;-62
2022/12/25 20:36:54;;;;;;;135.23;51.15;;;;;;;;;;6221443;28;20041;-62
2022/12/25 20:39:55;;;;;;;120.80;47.45;;;;;;;;;;6223725;28;20071;-62
2022/12/25 20:42:56;;;;;;;123.03;49.35;;;;;;;;;;6223001;28;20072;-62
2022/12/25 20:45:56;;;;;;;113.00;46.42;;;;;;;;;;6224862;28;20041;-62
2022/12/25 20:48:57;;;;;;;109.85;46.70;;;;;;;;;;6232020;28;20581;-62
2022/12/25 20:51:58;;;;;;;106.68;45.20;;;;;;;;;;6230613;28;20037;-64
2022/12/25 20:54:58;;;;;;;136.65;55.63;;;;;;;;;;6229257;28;20052;-62
2022/12/25 20:58:00;;;;;;;120.72;51.08;;;;;;;;;;6227112;28;20053;-62
2022/12/25 21:01:17;;;;;;;162.77;64.43;;;;;;;;;;6225811;28;21985;-62
2022/12/25 21:04:18;;;;;;;174.70;68.07;;;;;;;;;;6223338;28;20061;-62
2022/12/25 21:07:18;;;;;;;181.63;70.60;;;;;;;;;;6220260;28;21218;-61
2022/12/25 21:10:19;;;;;;;202.07;84.18;;;;;;;;;;6226741;28;20080;-62
2022/12/25 21:13:22;;;;;;;161.85;64.80;;;;;;;;;;6219434;28;20057;-63
2022/12/25 21:16:23;;;;;;;119.45;47.25;;;;;;;;;;6223788;28;20060;-63
2022/12/25 21:19:24;;;;;;;135.75;54.75;;;;;;;;;;6227751;28;20053;-63
2022/12/25 21:22:24;;;;;;;129.07;48.97;;;;;;;;;;6227973;28;20053;-62
2022/12/25 21:25:25;;;;;;;120.53;48.35;;;;;;;;;;6232019;28;20053;-63
2022/12/25 21:28:28;;;;;;;144.05;57.33;;;;;;;;;;6229420;28;20075;-63
2022/12/25 21:31:29;;;;;;;128.95;53.05;;;;;;;;;;6227507;28;20041;-63
2022/12/25 21:34:31;;;;;;;136.77;52.75;;;;;;;;;;6230965;28;20049;-63
2022/12/25 21:37:32;;;;;;;116.50;47.97;;;;;;;;;;6228527;28;20040;-63
2022/12/25 21:40:33;;;;;;;112.78;49.05;;;;;;;;;;6230111;28;20799;-62
2022/12/25 21:43:36;;;;;;;130.20;53.33;;;;;;;;;;6228248;28;20046;-63
2022/12/25 21:46:36;;;;;;;134.95;51.88;;;;;;;;;;6228368;28;20067;-63
2022/12/25 21:52:56;;;;;;;127.93;49.67;;;;;;;;;;6226092;28;20148;-63
2022/12/25 21:56:03;;;;;;;164.63;68.28;;;;;;;;;;6226077;28;20072;-62
2022/12/25 21:59:06;;;;;;;139.57;53.63;;;;;;;;;;6231018;28;20045;-63
2022/12/25 22:02:09;;;;;;;147.00;63.33;;;;;;;;;;6227071;28;20050;-63
2022/12/25 22:07:15;;;;;;;136.50;55.95;;;;;;;;;;6229544;28;20073;-63
2022/12/25 22:08:31;;;;;;;134.95;55.75;;;;;;;;;;6228766;28;20049;-63
2022/12/25 22:14:52;;;;;;;134.55;52.03;;;;;;;;;;6230149;28;20144;-62
2022/12/25 22:21:19;;;;;;;118.22;48.22;;;;;;;;;;6226590;28;20045;-66
2022/12/25 22:24:20;;;;;;;133.98;53.15;;;;;;;;;;6226950;28;20065;-63
2022/12/25 22:27:21;;;;;;;125.93;50.60;;;;;;;;;;6229239;28;20080;-62
2022/12/25 22:30:26;;;;;;;146.85;55.00;;;;;;;;;;6228554;28;20060;-65
2022/12/25 22:33:29;;;;;;;155.88;57.42;;;;;;;;;;6227374;28;20099;-62
2022/12/25 22:36:31;;;;;;;134.68;54.72;;;;;;;;;;6226699;28;20053;-62
2022/12/25 22:39:32;;;;;;;134.83;53.23;;;;;;;;;;6228196;28;20714;-62
2022/12/25 22:42:32;;;;;;;121.72;50.17;;;;;;;;;;6226688;28;22766;-62
2022/12/25 22:45:33;;;;;;;134.52;52.13;;;;;;;;;;6228927;28;20092;-67
2022/12/25 22:48:36;;;;;;;128.43;51.67;;;;;;;;;;6227264;28;20119;-62
2022/12/25 22:51:36;;;;;;;120.47;48.70;;;;;;;;;;6220146;28;20045;-61
2022/12/25 22:54:37;;;;;;;120.68;50.75;;;;;;;;;;6228729;28;20140;-61
2022/12/25 22:57:37;;;;;;;123.78;48.72;;;;;;;;;;6228522;28;20068;-61
2022/12/25 23:00:41;;;;;;;125.32;49.78;;;;;;;;;;6226616;28;20156;-62
2022/12/25 23:03:41;;;;;;;111.85;44.28;;;;;;;;;;6230841;28;20057;-62
2022/12/25 23:06:43;;;;;;;124.53;49.97;;;;;;;;;;6228332;28;20235;-62
2022/12/25 23:09:44;;;;;;;128.68;49.35;;;;;;;;;;6227283;28;20100;-61
2022/12/25 23:16:12;;;;;;;125.70;51.58;;;;;;;;;;6227626;28;20056;-62
2022/12/25 23:26:06;;;;;;;119.88;48.60;;;;;;;;;;6227428;28;20075;-62
2022/12/25 23:32:29;;;;;;;118.65;47.50;;;;;;;;;;6223357;28;20057;-61
2022/12/25 23:35:29;;;;;;;118.22;46.78;;;;;;;;;;6225247;28;20144;-61
2022/12/25 23:38:31;;;;;;;117.53;48.33;;;;;;;;;;6225869;28;20098;-61
2022/12/25 23:41:31;;;;;;;119.32;49.38;;;;;;;;;;6222457;28;20048;-61
2022/12/25 23:44:32;;;;;;;119.75;54.03;;;;;;;;;;6225447;28;20060;-61
2022/12/25 23:47:33;;;;;;;116.57;48.13;;;;;;;;;;6227664;28;20041;-61
2022/12/25 23:50:33;;;;;;;113.50;49.45;;;;;;;;;;6225364;28;20073;-62
2022/12/25 23:53:35;;;;;;;125.22;48.45;;;;;;;;;;6222392;28;20451;-62
2022/12/25 23:56:36;;;;;;;107.97;46.05;;;;;;;;;;6225911;28;20045;-61
2022/12/25 23:59:37;;;;;;;106.40;48.17;;;;;;;;;;6226158;28;20888;-61
